sensor_id;sensor_type;location;lat;lon;timestamp;P1;durP1;ratioP1;P2;durP2;ratioP2
41705;SDS011;27385;51.096;17.190;2024-01-27T00:02:00;11.30;;;0.80;;
41705;SDS011;27385;51.096;17.190;2024-01-27T00:04:52;14.10;;;1.10;;
41705;SDS011;27385;51.096;17.190;2024-01-27T00:07:43;15.50;;;1.00;;
41705;SDS011;27385;51.096;17.190;2024-01-27T00:10:35;8.50;;;0.90;;
41705;SDS011;27385;51.096;17.190;2024-01-27T00:13:26;11.40;;;1.10;;
41705;SDS011;27385;51.096;17.190;2024-01-27T00:16:17;18.20;;;1.30;;
41705;SDS011;27385;51.096;17.190;2024-01-27T00:19:08;12.20;;;1.70;;
41705;SDS011;27385;51.096;17.190;2024-01-27T00:21:59;6.90;;;0.90;;
41705;SDS011;27385;51.096;17.190;2024-01-27T00:24:51;15.20;;;0.80;;
41705;SDS011;27385;51.096;17.190;2024-01-27T00:27:42;11.70;;;0.80;;
41705;SDS011;27385;51.096;17.190;2024-01-27T00:34:45;14.30;;;0.90;;
41705;SDS011;27385;51.096;17.190;2024-01-27T00:37:37;10.30;;;0.80;;
41705;SDS011;27385;51.096;17.190;2024-01-27T00:40:28;14.20;;;1.50;;
41705;SDS011;27385;51.096;17.190;2024-01-27T00:43:19;8.10;;;1.00;;
41705;SDS011;27385;51.096;17.190;2024-01-27T00:46:11;11.90;;;1.00;;
41705;SDS011;27385;51.096;17.190;2024-01-27T00:49:03;6.90;;;1.20;;
41705;SDS011;27385;51.096;17.190;2024-01-27T00:51:54;12.80;;;0.90;;
41705;SDS011;27385;51.096;17.190;2024-01-27T00:54:46;10.70;;;1.10;;
41705;SDS011;27385;51.096;17.190;2024-01-27T00:57:37;7.90;;;1.20;;
41705;SDS011;27385;51.096;17.190;2024-01-27T01:00:28;11.30;;;0.90;;
41705;SDS011;27385;51.096;17.190;2024-01-27T01:03:21;13.70;;;0.80;;
41705;SDS011;27385;51.096;17.190;2024-01-27T01:06:13;9.20;;;0.90;;
41705;SDS011;27385;51.096;17.190;2024-01-27T01:09:04;13.30;;;1.70;;
41705;SDS011;27385;51.096;17.190;2024-01-27T01:11:56;10.60;;;1.00;;
41705;SDS011;27385;51.096;17.190;2024-01-27T01:14:48;14.50;;;0.80;;
41705;SDS011;27385;51.096;17.190;2024-01-27T01:17:39;15.20;;;1.60;;
41705;SDS011;27385;51.096;17.190;2024-01-27T01:20:31;13.80;;;1.10;;
41705;SDS011;27385;51.096;17.190;2024-01-27T01:23:22;12.60;;;1.10;;
41705;SDS011;27385;51.096;17.190;2024-01-27T01:26:14;11.20;;;1.40;;
41705;SDS011;27385;51.096;17.190;2024-01-27T01:29:05;17.40;;;1.10;;
41705;SDS011;27385;51.096;17.190;2024-01-27T01:31:56;16.50;;;1.20;;
41705;SDS011;27385;51.096;17.190;2024-01-27T01:34:51;11.30;;;0.90;;
41705;SDS011;27385;51.096;17.190;2024-01-27T01:37:42;17.00;;;1.40;;
41705;SDS011;27385;51.096;17.190;2024-01-27T01:40:32;9.10;;;1.30;;
41705;SDS011;27385;51.096;17.190;2024-01-27T01:43:24;13.10;;;1.50;;
41705;SDS011;27385;51.096;17.190;2024-01-27T01:46:14;18.30;;;1.00;;
41705;SDS011;27385;51.096;17.190;2024-01-27T01:51:55;8.40;;;0.90;;
41705;SDS011;27385;51.096;17.190;2024-01-27T01:54:47;12.50;;;1.00;;
41705;SDS011;27385;51.096;17.190;2024-01-27T01:57:39;9.30;;;1.00;;
41705;SDS011;27385;51.096;17.190;2024-01-27T02:00:31;6.40;;;0.80;;
41705;SDS011;27385;51.096;17.190;2024-01-27T02:03:22;12.70;;;0.80;;
41705;SDS011;27385;51.096;17.190;2024-01-27T02:09:02;11.60;;;0.90;;
41705;SDS011;27385;51.096;17.190;2024-01-27T02:11:54;10.60;;;1.40;;
41705;SDS011;27385;51.096;17.190;2024-01-27T02:14:45;8.20;;;0.80;;
41705;SDS011;27385;51.096;17.190;2024-01-27T02:17:36;16.50;;;1.10;;
41705;SDS011;27385;51.096;17.190;2024-01-27T02:20:28;13.60;;;1.20;;
41705;SDS011;27385;51.096;17.190;2024-01-27T02:23:19;14.70;;;1.10;;
41705;SDS011;27385;51.096;17.190;2024-01-27T02:26:10;11.80;;;0.80;;
41705;SDS011;27385;51.096;17.190;2024-01-27T02:29:02;13.20;;;0.90;;
41705;SDS011;27385;51.096;17.190;2024-01-27T02:31:53;14.40;;;1.10;;
41705;SDS011;27385;51.096;17.190;2024-01-27T02:34:45;10.30;;;1.40;;
41705;SDS011;27385;51.096;17.190;2024-01-27T02:37:36;11.70;;;1.00;;
41705;SDS011;27385;51.096;17.190;2024-01-27T02:40:28;12.60;;;0.90;;
41705;SDS011;27385;51.096;17.190;2024-01-27T02:43:19;12.40;;;1.20;;
41705;SDS011;27385;51.096;17.190;2024-01-27T02:46:11;12.40;;;1.60;;
41705;SDS011;27385;51.096;17.190;2024-01-27T02:49:03;14.90;;;1.30;;
41705;SDS011;27385;51.096;17.190;2024-01-27T02:51:54;12.20;;;1.10;;
41705;SDS011;27385;51.096;17.190;2024-01-27T02:54:45;11.30;;;1.00;;
41705;SDS011;27385;51.096;17.190;2024-01-27T02:57:36;18.10;;;1.20;;
41705;SDS011;27385;51.096;17.190;2024-01-27T03:00:29;16.20;;;1.40;;
41705;SDS011;27385;51.096;17.190;2024-01-27T03:03:20;13.70;;;1.00;;
41705;SDS011;27385;51.096;17.190;2024-01-27T03:06:11;15.60;;;1.00;;
41705;SDS011;27385;51.096;17.190;2024-01-27T03:09:03;9.40;;;1.00;;
41705;SDS011;27385;51.096;17.190;2024-01-27T03:11:54;14.00;;;0.90;;
41705;SDS011;27385;51.096;17.190;2024-01-27T03:14:45;14.20;;;0.70;;
41705;SDS011;27385;51.096;17.190;2024-01-27T03:17:37;15.30;;;0.90;;
41705;SDS011;27385;51.096;17.190;2024-01-27T03:20:28;8.30;;;0.90;;
41705;SDS011;27385;51.096;17.190;2024-01-27T03:23:20;12.60;;;1.00;;
41705;SDS011;27385;51.096;17.190;2024-01-27T03:26:11;13.90;;;1.00;;
41705;SDS011;27385;51.096;17.190;2024-01-27T03:29:02;14.20;;;1.70;;
41705;SDS011;27385;51.096;17.190;2024-01-27T03:31:54;15.60;;;1.40;;
41705;SDS011;27385;51.096;17.190;2024-01-27T03:34:45;11.90;;;1.00;;
41705;SDS011;27385;51.096;17.190;2024-01-27T03:37:36;14.20;;;1.20;;
41705;SDS011;27385;51.096;17.190;2024-01-27T03:40:27;19.60;;;1.70;;
41705;SDS011;27385;51.096;17.190;2024-01-27T03:43:18;12.90;;;1.70;;
41705;SDS011;27385;51.096;17.190;2024-01-27T03:50:08;12.20;;;1.00;;
41705;SDS011;27385;51.096;17.190;2024-01-27T03:52:59;11.90;;;1.00;;
41705;SDS011;27385;51.096;17.190;2024-01-27T03:55:50;11.90;;;0.90;;
41705;SDS011;27385;51.096;17.190;2024-01-27T03:58:41;10.90;;;0.70;;
41705;SDS011;27385;51.096;17.190;2024-01-27T04:01:32;18.30;;;1.80;;
41705;SDS011;27385;51.096;17.190;2024-01-27T04:04:23;14.10;;;1.10;;
41705;SDS011;27385;51.096;17.190;2024-01-27T04:07:14;8.70;;;1.10;;
41705;SDS011;27385;51.096;17.190;2024-01-27T04:10:06;17.20;;;1.00;;
41705;SDS011;27385;51.096;17.190;2024-01-27T04:12:58;16.80;;;1.90;;
41705;SDS011;27385;51.096;17.190;2024-01-27T04:15:49;13.80;;;1.00;;
41705;SDS011;27385;51.096;17.190;2024-01-27T04:18:42;15.20;;;1.00;;
41705;SDS011;27385;51.096;17.190;2024-01-27T04:21:33;15.80;;;1.10;;
41705;SDS011;27385;51.096;17.190;2024-01-27T04:24:24;19.70;;;1.20;;
41705;SDS011;27385;51.096;17.190;2024-01-27T04:27:16;8.50;;;0.70;;
41705;SDS011;27385;51.096;17.190;2024-01-27T04:30:08;11.60;;;1.00;;
41705;SDS011;27385;51.096;17.190;2024-01-27T04:33:00;9.90;;;1.00;;
41705;SDS011;27385;51.096;17.190;2024-01-27T04:35:52;16.60;;;1.20;;
41705;SDS011;27385;51.096;17.190;2024-01-27T04:38:44;10.80;;;1.70;;
41705;SDS011;27385;51.096;17.190;2024-01-27T04:41:40;12.50;;;0.90;;
41705;SDS011;27385;51.096;17.190;2024-01-27T04:44:32;21.10;;;1.60;;
41705;SDS011;27385;51.096;17.190;2024-01-27T04:47:24;11.60;;;1.00;;
41705;SDS011;27385;51.096;17.190;2024-01-27T04:50:15;15.80;;;1.00;;
41705;SDS011;27385;51.096;17.190;2024-01-27T04:53:07;16.70;;;1.00;;
41705;SDS011;27385;51.096;17.190;2024-01-27T04:55:58;13.10;;;1.30;;
41705;SDS011;27385;51.096;17.190;2024-01-27T04:58:49;10.70;;;0.80;;
41705;SDS011;27385;51.096;17.190;2024-01-27T05:01:43;7.40;;;1.10;;
41705;SDS011;27385;51.096;17.190;2024-01-27T05:04:35;16.80;;;1.40;;
41705;SDS011;27385;51.096;17.190;2024-01-27T05:07:28;13.80;;;1.00;;
41705;SDS011;27385;51.096;17.190;2024-01-27T05:10:20;11.90;;;0.80;;
41705;SDS011;27385;51.096;17.190;2024-01-27T05:13:13;21.50;;;1.70;;
41705;SDS011;27385;51.096;17.190;2024-01-27T05:16:05;13.50;;;1.10;;
41705;SDS011;27385;51.096;17.190;2024-01-27T05:18:56;16.60;;;1.70;;
41705;SDS011;27385;51.096;17.190;2024-01-27T05:21:47;13.90;;;1.20;;
41705;SDS011;27385;51.096;17.190;2024-01-27T05:24:38;14.80;;;1.00;;
41705;SDS011;27385;51.096;17.190;2024-01-27T05:27:29;8.30;;;0.80;;
41705;SDS011;27385;51.096;17.190;2024-01-27T05:30:20;12.20;;;1.00;;
41705;SDS011;27385;51.096;17.190;2024-01-27T05:37:51;11.00;;;0.90;;
41705;SDS011;27385;51.096;17.190;2024-01-27T05:40:42;9.20;;;1.20;;
41705;SDS011;27385;51.096;17.190;2024-01-27T05:43:34;10.80;;;1.30;;
41705;SDS011;27385;51.096;17.190;2024-01-27T05:46:26;15.10;;;1.70;;
41705;SDS011;27385;51.096;17.190;2024-01-27T05:49:17;14.50;;;1.20;;
41705;SDS011;27385;51.096;17.190;2024-01-27T05:52:09;11.40;;;0.80;;
41705;SDS011;27385;51.096;17.190;2024-01-27T05:55:00;10.00;;;1.20;;
41705;SDS011;27385;51.096;17.190;2024-01-27T05:57:54;13.00;;;1.00;;
41705;SDS011;27385;51.096;17.190;2024-01-27T06:00:45;10.00;;;1.10;;
41705;SDS011;27385;51.096;17.190;2024-01-27T06:03:37;15.10;;;1.70;;
41705;SDS011;27385;51.096;17.190;2024-01-27T06:06:30;16.70;;;1.40;;
41705;SDS011;27385;51.096;17.190;2024-01-27T06:09:20;18.50;;;1.40;;
41705;SDS011;27385;51.096;17.190;2024-01-27T06:12:12;14.30;;;1.20;;
41705;SDS011;27385;51.096;17.190;2024-01-27T06:15:04;18.10;;;1.40;;
41705;SDS011;27385;51.096;17.190;2024-01-27T06:17:57;9.70;;;1.00;;
41705;SDS011;27385;51.096;17.190;2024-01-27T06:20:48;16.60;;;1.20;;
41705;SDS011;27385;51.096;17.190;2024-01-27T06:23:40;17.40;;;1.90;;
41705;SDS011;27385;51.096;17.190;2024-01-27T06:26:31;11.60;;;0.90;;
41705;SDS011;27385;51.096;17.190;2024-01-27T06:29:23;16.60;;;1.10;;
41705;SDS011;27385;51.096;17.190;2024-01-27T06:32:16;16.20;;;1.70;;
41705;SDS011;27385;51.096;17.190;2024-01-27T06:35:11;14.90;;;1.20;;
41705;SDS011;27385;51.096;17.190;2024-01-27T06:38:05;20.60;;;1.50;;
41705;SDS011;27385;51.096;17.190;2024-01-27T06:40:57;16.40;;;1.20;;
41705;SDS011;27385;51.096;17.190;2024-01-27T06:43:48;15.70;;;1.50;;
41705;SDS011;27385;51.096;17.190;2024-01-27T06:46:40;11.30;;;0.90;;
41705;SDS011;27385;51.096;17.190;2024-01-27T06:49:32;14.60;;;1.00;;
41705;SDS011;27385;51.096;17.190;2024-01-27T06:52:23;12.50;;;1.30;;
41705;SDS011;27385;51.096;17.190;2024-01-27T06:55:14;15.10;;;2.00;;
41705;SDS011;27385;51.096;17.190;2024-01-27T06:58:06;10.50;;;1.30;;
41705;SDS011;27385;51.096;17.190;2024-01-27T07:00:57;15.40;;;1.70;;
41705;SDS011;27385;51.096;17.190;2024-01-27T07:03:48;15.60;;;1.20;;
41705;SDS011;27385;51.096;17.190;2024-01-27T07:06:40;17.20;;;2.00;;
41705;SDS011;27385;51.096;17.190;2024-01-27T07:09:31;17.20;;;1.90;;
41705;SDS011;27385;51.096;17.190;2024-01-27T07:12:22;19.30;;;1.40;;
41705;SDS011;27385;51.096;17.190;2024-01-27T07:15:14;14.70;;;2.30;;
41705;SDS011;27385;51.096;17.190;2024-01-27T07:18:07;17.10;;;1.90;;
41705;SDS011;27385;51.096;17.190;2024-01-27T07:20:58;12.00;;;1.30;;
41705;SDS011;27385;51.096;17.190;2024-01-27T07:23:52;17.20;;;1.10;;
41705;SDS011;27385;51.096;17.190;2024-01-27T07:26:43;18.60;;;1.40;;
41705;SDS011;27385;51.096;17.190;2024-01-27T07:29:34;17.80;;;2.20;;
41705;SDS011;27385;51.096;17.190;2024-01-27T07:32:25;22.20;;;2.30;;
41705;SDS011;27385;51.096;17.190;2024-01-27T07:35:16;14.30;;;1.00;;
41705;SDS011;27385;51.096;17.190;2024-01-27T07:38:07;13.20;;;1.00;;
41705;SDS011;27385;51.096;17.190;2024-01-27T07:41:00;17.80;;;2.10;;
41705;SDS011;27385;51.096;17.190;2024-01-27T07:43:51;17.10;;;1.20;;
41705;SDS011;27385;51.096;17.190;2024-01-27T07:46:43;21.20;;;2.00;;
41705;SDS011;27385;51.096;17.190;2024-01-27T07:49:34;16.80;;;1.10;;
41705;SDS011;27385;51.096;17.190;2024-01-27T07:52:25;9.30;;;1.10;;
41705;SDS011;27385;51.096;17.190;2024-01-27T07:55:17;17.00;;;1.70;;
41705;SDS011;27385;51.096;17.190;2024-01-27T07:58:08;16.20;;;1.00;;
41705;SDS011;27385;51.096;17.190;2024-01-27T08:00:59;9.30;;;1.00;;
41705;SDS011;27385;51.096;17.190;2024-01-27T08:03:50;14.40;;;1.10;;
41705;SDS011;27385;51.096;17.190;2024-01-27T08:11:29;20.20;;;1.50;;
41705;SDS011;27385;51.096;17.190;2024-01-27T08:17:08;17.80;;;1.80;;
41705;SDS011;27385;51.096;17.190;2024-01-27T08:19:59;18.00;;;1.20;;
41705;SDS011;27385;51.096;17.190;2024-01-27T08:22:50;17.00;;;1.90;;
41705;SDS011;27385;51.096;17.190;2024-01-27T08:25:41;15.70;;;1.20;;
41705;SDS011;27385;51.096;17.190;2024-01-27T08:28:35;11.20;;;1.10;;
41705;SDS011;27385;51.096;17.190;2024-01-27T08:31:26;17.70;;;2.50;;
41705;SDS011;27385;51.096;17.190;2024-01-27T08:34:16;12.80;;;1.90;;
41705;SDS011;27385;51.096;17.190;2024-01-27T08:37:15;12.00;;;1.00;;
41705;SDS011;27385;51.096;17.190;2024-01-27T08:40:08;18.10;;;1.50;;
41705;SDS011;27385;51.096;17.190;2024-01-27T08:43:00;23.40;;;1.20;;
41705;SDS011;27385;51.096;17.190;2024-01-27T08:45:52;12.60;;;1.30;;
41705;SDS011;27385;51.096;17.190;2024-01-27T08:48:44;18.70;;;1.20;;
41705;SDS011;27385;51.096;17.190;2024-01-27T08:51:36;13.90;;;1.00;;
41705;SDS011;27385;51.096;17.190;2024-01-27T08:54:27;16.80;;;2.00;;
41705;SDS011;27385;51.096;17.190;2024-01-27T08:57:18;11.70;;;0.90;;
41705;SDS011;27385;51.096;17.190;2024-01-27T09:00:11;18.80;;;1.60;;
41705;SDS011;27385;51.096;17.190;2024-01-27T09:03:04;18.80;;;1.30;;
41705;SDS011;27385;51.096;17.190;2024-01-27T09:05:56;14.40;;;1.70;;
41705;SDS011;27385;51.096;17.190;2024-01-27T09:08:47;18.50;;;1.40;;
41705;SDS011;27385;51.096;17.190;2024-01-27T09:11:38;23.30;;;2.10;;
41705;SDS011;27385;51.096;17.190;2024-01-27T09:14:29;17.50;;;1.30;;
41705;SDS011;27385;51.096;17.190;2024-01-27T09:17:21;17.80;;;1.10;;
41705;SDS011;27385;51.096;17.190;2024-01-27T09:20:13;9.20;;;0.90;;
41705;SDS011;27385;51.096;17.190;2024-01-27T09:23:04;13.80;;;1.00;;
41705;SDS011;27385;51.096;17.190;2024-01-27T09:25:55;18.00;;;1.10;;
41705;SDS011;27385;51.096;17.190;2024-01-27T09:28:47;14.50;;;1.30;;
41705;SDS011;27385;51.096;17.190;2024-01-27T09:31:42;21.10;;;2.30;;
41705;SDS011;27385;51.096;17.190;2024-01-27T09:34:33;17.60;;;2.10;;
41705;SDS011;27385;51.096;17.190;2024-01-27T09:37:24;13.90;;;1.40;;
41705;SDS011;27385;51.096;17.190;2024-01-27T09:40:16;16.70;;;2.10;;
41705;SDS011;27385;51.096;17.190;2024-01-27T09:43:08;13.10;;;1.30;;
41705;SDS011;27385;51.096;17.190;2024-01-27T09:46:03;16.60;;;1.80;;
41705;SDS011;27385;51.096;17.190;2024-01-27T09:48:54;13.10;;;1.00;;
41705;SDS011;27385;51.096;17.190;2024-01-27T09:51:45;16.40;;;1.10;;
41705;SDS011;27385;51.096;17.190;2024-01-27T09:54:37;17.10;;;1.20;;
41705;SDS011;27385;51.096;17.190;2024-01-27T10:01:46;17.90;;;1.30;;
41705;SDS011;27385;51.096;17.190;2024-01-27T10:04:39;22.90;;;2.20;;
41705;SDS011;27385;51.096;17.190;2024-01-27T10:12:20;17.60;;;1.70;;
41705;SDS011;27385;51.096;17.190;2024-01-27T10:15:21;20.80;;;1.30;;
41705;SDS011;27385;51.096;17.190;2024-01-27T10:18:14;13.50;;;1.30;;
41705;SDS011;27385;51.096;17.190;2024-01-27T10:21:13;19.20;;;1.30;;
41705;SDS011;27385;51.096;17.190;2024-01-27T10:24:06;15.30;;;1.50;;
41705;SDS011;27385;51.096;17.190;2024-01-27T10:31:51;9.80;;;1.40;;
41705;SDS011;27385;51.096;17.190;2024-01-27T10:34:42;19.40;;;1.20;;
41705;SDS011;27385;51.096;17.190;2024-01-27T10:44:38;14.50;;;1.10;;
41705;SDS011;27385;51.096;17.190;2024-01-27T10:47:32;16.60;;;1.30;;
41705;SDS011;27385;51.096;17.190;2024-01-27T10:50:26;16.30;;;1.20;;
41705;SDS011;27385;51.096;17.190;2024-01-27T10:53:19;16.70;;;1.70;;
41705;SDS011;27385;51.096;17.190;2024-01-27T10:56:15;13.20;;;1.30;;
41705;SDS011;27385;51.096;17.190;2024-01-27T10:59:07;15.60;;;1.70;;
41705;SDS011;27385;51.096;17.190;2024-01-27T11:02:01;14.30;;;1.40;;
41705;SDS011;27385;51.096;17.190;2024-01-27T11:04:54;17.70;;;1.30;;
41705;SDS011;27385;51.096;17.190;2024-01-27T11:07:46;7.40;;;1.20;;
41705;SDS011;27385;51.096;17.190;2024-01-27T11:10:39;13.70;;;1.50;;
41705;SDS011;27385;51.096;17.190;2024-01-27T11:13:32;13.70;;;1.10;;
41705;SDS011;27385;51.096;17.190;2024-01-27T11:16:23;18.10;;;1.70;;
41705;SDS011;27385;51.096;17.190;2024-01-27T11:19:16;9.80;;;1.30;;
41705;SDS011;27385;51.096;17.190;2024-01-27T11:22:08;21.80;;;1.60;;
41705;SDS011;27385;51.096;17.190;2024-01-27T11:25:17;12.30;;;0.90;;
41705;SDS011;27385;51.096;17.190;2024-01-27T11:28:12;9.90;;;1.20;;
41705;SDS011;27385;51.096;17.190;2024-01-27T11:31:05;16.00;;;1.40;;
41705;SDS011;27385;51.096;17.190;2024-01-27T11:33:56;11.20;;;1.50;;
41705;SDS011;27385;51.096;17.190;2024-01-27T11:36:49;16.90;;;1.90;;
41705;SDS011;27385;51.096;17.190;2024-01-27T11:39:40;18.30;;;1.80;;
41705;SDS011;27385;51.096;17.190;2024-01-27T11:42:31;19.70;;;1.30;;
41705;SDS011;27385;51.096;17.190;2024-01-27T11:45:22;11.50;;;1.30;;
41705;SDS011;27385;51.096;17.190;2024-01-27T11:48:13;11.20;;;0.90;;
41705;SDS011;27385;51.096;17.190;2024-01-27T11:51:05;9.80;;;0.90;;
41705;SDS011;27385;51.096;17.190;2024-01-27T11:53:59;13.50;;;1.30;;
41705;SDS011;27385;51.096;17.190;2024-01-27T11:56:52;16.70;;;1.30;;
41705;SDS011;27385;51.096;17.190;2024-01-27T11:59:43;12.80;;;1.30;;
41705;SDS011;27385;51.096;17.190;2024-01-27T12:02:33;16.60;;;1.20;;
41705;SDS011;27385;51.096;17.190;2024-01-27T12:05:24;12.50;;;1.50;;
41705;SDS011;27385;51.096;17.190;2024-01-27T12:08:17;17.30;;;1.80;;
41705;SDS011;27385;51.096;17.190;2024-01-27T12:11:08;15.70;;;1.50;;
41705;SDS011;27385;51.096;17.190;2024-01-27T12:13:59;11.80;;;0.90;;
41705;SDS011;27385;51.096;17.190;2024-01-27T12:16:50;8.00;;;1.10;;
41705;SDS011;27385;51.096;17.190;2024-01-27T12:19:46;18.40;;;1.30;;
41705;SDS011;27385;51.096;17.190;2024-01-27T12:22:40;16.80;;;1.80;;
41705;SDS011;27385;51.096;17.190;2024-01-27T12:25:31;21.70;;;1.80;;
41705;SDS011;27385;51.096;17.190;2024-01-27T12:28:24;15.90;;;1.60;;
41705;SDS011;27385;51.096;17.190;2024-01-27T12:31:19;12.50;;;1.70;;
41705;SDS011;27385;51.096;17.190;2024-01-27T12:37:30;11.20;;;1.80;;
41705;SDS011;27385;51.096;17.190;2024-01-27T12:40:21;21.00;;;1.80;;
41705;SDS011;27385;51.096;17.190;2024-01-27T12:43:12;15.70;;;1.90;;
41705;SDS011;27385;51.096;17.190;2024-01-27T12:46:03;10.90;;;1.30;;
41705;SDS011;27385;51.096;17.190;2024-01-27T12:48:54;12.00;;;1.20;;
41705;SDS011;27385;51.096;17.190;2024-01-27T12:51:45;15.50;;;1.30;;
41705;SDS011;27385;51.096;17.190;2024-01-27T12:54:36;16.00;;;1.10;;
41705;SDS011;27385;51.096;17.190;2024-01-27T12:57:27;15.50;;;1.90;;
41705;SDS011;27385;51.096;17.190;2024-01-27T13:00:18;18.60;;;1.40;;
41705;SDS011;27385;51.096;17.190;2024-01-27T13:03:10;15.70;;;1.90;;
41705;SDS011;27385;51.096;17.190;2024-01-27T13:06:01;18.30;;;1.20;;
41705;SDS011;27385;51.096;17.190;2024-01-27T13:08:53;11.60;;;1.30;;
41705;SDS011;27385;51.096;17.190;2024-01-27T13:11:44;10.80;;;1.00;;
41705;SDS011;27385;51.096;17.190;2024-01-27T13:14:35;14.40;;;1.60;;
41705;SDS011;27385;51.096;17.190;2024-01-27T13:17:26;15.60;;;1.90;;
41705;SDS011;27385;51.096;17.190;2024-01-27T13:20:17;15.00;;;1.70;;
41705;SDS011;27385;51.096;17.190;2024-01-27T13:23:08;17.80;;;1.90;;
41705;SDS011;27385;51.096;17.190;2024-01-27T13:25:59;11.70;;;1.50;;
41705;SDS011;27385;51.096;17.190;2024-01-27T13:28:50;14.50;;;2.40;;
41705;SDS011;27385;51.096;17.190;2024-01-27T13:31:41;15.50;;;1.30;;
41705;SDS011;27385;51.096;17.190;2024-01-27T13:37:21;10.70;;;1.20;;
41705;SDS011;27385;51.096;17.190;2024-01-27T13:40:13;14.00;;;1.50;;
41705;SDS011;27385;51.096;17.190;2024-01-27T13:43:04;12.50;;;1.10;;
41705;SDS011;27385;51.096;17.190;2024-01-27T13:45:55;12.10;;;1.00;;
41705;SDS011;27385;51.096;17.190;2024-01-27T13:48:46;10.60;;;1.40;;
41705;SDS011;27385;51.096;17.190;2024-01-27T13:51:37;12.00;;;1.10;;
41705;SDS011;27385;51.096;17.190;2024-01-27T13:57:17;12.60;;;1.30;;
41705;SDS011;27385;51.096;17.190;2024-01-27T14:00:09;13.40;;;1.80;;
41705;SDS011;27385;51.096;17.190;2024-01-27T14:03:01;12.80;;;1.10;;
41705;SDS011;27385;51.096;17.190;2024-01-27T14:05:53;14.70;;;1.30;;
41705;SDS011;27385;51.096;17.190;2024-01-27T14:08:45;20.00;;;1.50;;
41705;SDS011;27385;51.096;17.190;2024-01-27T14:11:36;12.30;;;1.20;;
41705;SDS011;27385;51.096;17.190;2024-01-27T14:14:27;19.60;;;1.70;;
41705;SDS011;27385;51.096;17.190;2024-01-27T14:17:19;17.10;;;1.80;;
41705;SDS011;27385;51.096;17.190;2024-01-27T14:20:12;15.30;;;1.70;;
41705;SDS011;27385;51.096;17.190;2024-01-27T14:23:03;13.20;;;1.50;;
41705;SDS011;27385;51.096;17.190;2024-01-27T14:25:55;21.50;;;1.60;;
41705;SDS011;27385;51.096;17.190;2024-01-27T14:28:46;20.40;;;2.40;;
41705;SDS011;27385;51.096;17.190;2024-01-27T14:31:37;15.10;;;1.70;;
41705;SDS011;27385;51.096;17.190;2024-01-27T14:34:28;15.30;;;1.30;;
41705;SDS011;27385;51.096;17.190;2024-01-27T14:41:57;19.60;;;1.60;;
41705;SDS011;27385;51.096;17.190;2024-01-27T14:44:52;10.10;;;1.30;;
41705;SDS011;27385;51.096;17.190;2024-01-27T14:47:44;13.90;;;1.10;;
41705;SDS011;27385;51.096;17.190;2024-01-27T14:50:34;15.40;;;1.40;;
41705;SDS011;27385;51.096;17.190;2024-01-27T14:53:26;18.20;;;1.60;;
41705;SDS011;27385;51.096;17.190;2024-01-27T14:56:17;20.20;;;1.70;;
41705;SDS011;27385;51.096;17.190;2024-01-27T14:59:08;12.90;;;1.50;;
41705;SDS011;27385;51.096;17.190;2024-01-27T15:01:59;9.60;;;1.10;;
41705;SDS011;27385;51.096;17.190;2024-01-27T15:04:50;14.60;;;1.50;;
41705;SDS011;27385;51.096;17.190;2024-01-27T15:07:41;14.60;;;1.70;;
41705;SDS011;27385;51.096;17.190;2024-01-27T15:10:33;12.60;;;1.30;;
41705;SDS011;27385;51.096;17.190;2024-01-27T15:13:24;16.30;;;1.50;;
41705;SDS011;27385;51.096;17.190;2024-01-27T15:16:15;14.30;;;1.60;;
41705;SDS011;27385;51.096;17.190;2024-01-27T15:19:07;21.70;;;2.10;;
41705;SDS011;27385;51.096;17.190;2024-01-27T15:21:58;13.60;;;1.70;;
41705;SDS011;27385;51.096;17.190;2024-01-27T15:24:49;18.20;;;2.30;;
41705;SDS011;27385;51.096;17.190;2024-01-27T15:27:42;12.30;;;1.30;;
41705;SDS011;27385;51.096;17.190;2024-01-27T15:30:33;18.00;;;2.00;;
41705;SDS011;27385;51.096;17.190;2024-01-27T15:33:25;19.90;;;5.20;;
41705;SDS011;27385;51.096;17.190;2024-01-27T15:36:16;14.90;;;2.60;;
41705;SDS011;27385;51.096;17.190;2024-01-27T15:39:07;28.20;;;6.40;;
41705;SDS011;27385;51.096;17.190;2024-01-27T15:42:00;20.00;;;4.10;;
41705;SDS011;27385;51.096;17.190;2024-01-27T15:44:51;24.50;;;4.10;;
41705;SDS011;27385;51.096;17.190;2024-01-27T15:51:14;24.40;;;3.50;;
41705;SDS011;27385;51.096;17.190;2024-01-27T15:54:05;25.50;;;4.70;;
41705;SDS011;27385;51.096;17.190;2024-01-27T15:56:57;22.90;;;6.10;;
41705;SDS011;27385;51.096;17.190;2024-01-27T16:04:06;26.20;;;2.20;;
41705;SDS011;27385;51.096;17.190;2024-01-27T16:06:58;14.00;;;2.50;;
41705;SDS011;27385;51.096;17.190;2024-01-27T16:09:49;15.10;;;2.50;;
41705;SDS011;27385;51.096;17.190;2024-01-27T16:18:54;24.30;;;3.70;;
41705;SDS011;27385;51.096;17.190;2024-01-27T16:21:46;17.40;;;3.90;;
41705;SDS011;27385;51.096;17.190;2024-01-27T16:25:15;21.90;;;3.20;;
41705;SDS011;27385;51.096;17.190;2024-01-27T16:28:06;27.90;;;3.00;;
41705;SDS011;27385;51.096;17.190;2024-01-27T16:30:57;22.90;;;3.10;;
41705;SDS011;27385;51.096;17.190;2024-01-27T16:33:48;28.80;;;3.10;;
41705;SDS011;27385;51.096;17.190;2024-01-27T16:36:39;20.90;;;2.70;;
41705;SDS011;27385;51.096;17.190;2024-01-27T16:39:30;20.80;;;3.20;;
41705;SDS011;27385;51.096;17.190;2024-01-27T16:42:21;24.90;;;3.50;;
41705;SDS011;27385;51.096;17.190;2024-01-27T16:45:12;25.50;;;3.50;;
41705;SDS011;27385;51.096;17.190;2024-01-27T16:48:05;21.90;;;3.00;;
41705;SDS011;27385;51.096;17.190;2024-01-27T16:50:56;18.20;;;2.60;;
41705;SDS011;27385;51.096;17.190;2024-01-27T16:53:47;17.40;;;1.70;;
41705;SDS011;27385;51.096;17.190;2024-01-27T16:56:39;17.00;;;1.90;;
41705;SDS011;27385;51.096;17.190;2024-01-27T16:59:40;19.30;;;2.20;;
41705;SDS011;27385;51.096;17.190;2024-01-27T17:02:32;16.60;;;2.60;;
41705;SDS011;27385;51.096;17.190;2024-01-27T17:05:24;21.40;;;2.70;;
41705;SDS011;27385;51.096;17.190;2024-01-27T17:08:18;29.90;;;3.20;;
41705;SDS011;27385;51.096;17.190;2024-01-27T17:11:10;23.60;;;3.20;;
41705;SDS011;27385;51.096;17.190;2024-01-27T17:14:03;22.60;;;2.90;;
41705;SDS011;27385;51.096;17.190;2024-01-27T17:16:54;17.70;;;3.00;;
41705;SDS011;27385;51.096;17.190;2024-01-27T17:19:45;17.30;;;3.30;;
41705;SDS011;27385;51.096;17.190;2024-01-27T17:22:36;18.80;;;3.70;;
41705;SDS011;27385;51.096;17.190;2024-01-27T17:25:27;16.60;;;2.80;;
41705;SDS011;27385;51.096;17.190;2024-01-27T17:28:22;22.90;;;3.90;;
41705;SDS011;27385;51.096;17.190;2024-01-27T17:34:16;17.20;;;2.20;;
41705;SDS011;27385;51.096;17.190;2024-01-27T17:37:09;22.40;;;3.70;;
41705;SDS011;27385;51.096;17.190;2024-01-27T17:45:48;24.40;;;4.30;;
41705;SDS011;27385;51.096;17.190;2024-01-27T17:48:39;18.70;;;2.30;;
41705;SDS011;27385;51.096;17.190;2024-01-27T17:51:31;17.80;;;2.80;;
41705;SDS011;27385;51.096;17.190;2024-01-27T17:54:25;26.80;;;3.00;;
41705;SDS011;27385;51.096;17.190;2024-01-27T17:57:16;25.40;;;2.60;;
41705;SDS011;27385;51.096;17.190;2024-01-27T18:00:08;23.80;;;2.90;;
41705;SDS011;27385;51.096;17.190;2024-01-27T18:03:01;27.90;;;3.70;;
41705;SDS011;27385;51.096;17.190;2024-01-27T18:05:52;18.30;;;3.00;;
41705;SDS011;27385;51.096;17.190;2024-01-27T18:08:43;24.70;;;2.80;;
41705;SDS011;27385;51.096;17.190;2024-01-27T18:11:34;21.30;;;2.70;;